createdAt,value
2017-12-31T00:02:37.182Z,56.56
2017-12-31T00:17:35.098Z,57.55
2017-12-31T00:32:35.092Z,58.67
2017-12-31T00:47:34.994Z,59.58
2017-12-31T01:02:34.456Z,60.07
2017-12-31T01:17:38.731Z,60.72
2017-12-31T01:32:35.651Z,61.29
2017-12-31T01:47:38.159Z,61.31
2017-12-31T02:02:34.618Z,61.48
2017-12-31T02:17:34.559Z,61.83
2017-12-31T02:32:34.576Z,61.14
2017-12-31T02:47:34.024Z,63.45
2017-12-31T03:02:34.850Z,64.08
2017-12-31T03:17:34.911Z,64.37
2017-12-31T03:32:36.744Z,64.48
2017-12-31T03:47:34.297Z,64.19
2017-12-31T04:02:35.106Z,64.24
2017-12-31T04:17:35.016Z,63.85
2017-12-31T04:32:34.958Z,63.79
2017-12-31T04:47:36.963Z,64.26
2017-12-31T05:02:37.074Z,64.43
2017-12-31T05:17:36.739Z,64.55
2017-12-31T05:32:35.252Z,64.40
2017-12-31T05:47:35.160Z,64.65
2017-12-31T06:02:34.487Z,64.26
2017-12-31T06:17:34.431Z,64.69
2017-12-31T06:32:34.682Z,62.25
2017-12-31T06:47:34.391Z,59.01
2017-12-31T07:02:34.726Z,59.20
2017-12-31T07:17:34.174Z,58.01
2017-12-31T07:32:36.654Z,57.22
2017-12-31T08:17:34.955Z,48.38
2017-12-31T08:32:34.874Z,46.57
2017-12-31T08:47:35.332Z,45.65
2017-12-31T09:02:38.263Z,46.77
2017-12-31T09:17:35.082Z,47.19
2017-12-31T09:32:35.125Z,46.03
2017-12-31T09:47:35.114Z,45.85
2017-12-31T10:02:35.045Z,46.26
2017-12-31T10:17:34.614Z,46.81
2017-12-31T10:47:34.528Z,48.01
2017-12-31T11:17:35.100Z,47.07
2017-12-31T12:17:40.336Z,46.76
2017-12-31T12:32:34.233Z,45.80
2017-12-31T12:47:34.229Z,45.22
2017-12-31T13:02:35.224Z,51.60
2017-12-31T13:17:34.283Z,43.25
2017-12-31T13:32:34.505Z,44.25
2017-12-31T13:47:35.182Z,45.39
2017-12-31T14:02:34.383Z,45.74
2017-12-31T14:17:34.739Z,46.13
2017-12-31T14:32:36.671Z,46.87
2017-12-31T14:47:34.639Z,47.17
2017-12-31T15:02:34.618Z,48.06
2017-12-31T16:47:34.958Z,55.39
2017-12-31T20:17:35.547Z,60.21
2017-12-31T20:32:35.401Z,61.03
2017-12-31T21:02:35.069Z,62.03
2017-12-31T21:17:35.934Z,61.86
2017-12-31T21:32:33.868Z,62.15
2017-12-31T21:47:36.295Z,61.66
2017-12-31T22:02:34.763Z,62.35
2017-12-31T22:17:36.231Z,62.54
2017-12-31T22:32:36.773Z,62.89
2017-12-31T22:47:34.534Z,62.41
2017-12-31T23:02:34.557Z,63.50
2017-12-31T23:17:38.332Z,64.31
2017-12-31T23:32:41.848Z,64.03
2017-12-31T23:47:37.890Z,64.75
